Terminal Aerodrome Forecast
Issued by NWS Brownsville, TX

Home | Current Version | Previous Version | Text Only | Print | Product List | Glossary On
Versions: 1 2 3 4 5 6 7 8 9 10 11 12 13 14
271
FTUS44 KBRO 222337
TAFMFE
TAF
KMFE 222337Z 2300/2324 11015G20KT P6SM FEW060 SCT120
     FM230200 11010KT P6SM SKC
     FM230600 VRB04KT P6SM FEW025
     FM231600 05009KT P6SM SCT050
     FM231900 08012G17KT P6SM VCSH BKN060=

USA.gov is the U.S. government's official web portal to all federal, state and local government web resources and services.